createdAt,value
2022-09-10T00:00:21.631Z,6.35
2022-09-10T00:02:49.377Z,6.72
2022-09-10T00:05:18.043Z,6.35
2022-09-10T00:07:46.399Z,6.00
2022-09-10T00:10:14.338Z,6.72
2022-09-10T00:12:42.756Z,6.68
2022-09-10T00:15:12.930Z,6.57
2022-09-10T00:17:40.719Z,7.30
2022-09-10T00:20:09.103Z,7.25
2022-09-10T00:22:36.699Z,6.65
2022-09-10T00:25:08.216Z,7.07
2022-09-10T00:27:36.464Z,6.97
2022-09-10T00:30:04.674Z,6.78
2022-09-10T00:32:34.764Z,6.85
2022-09-10T00:35:02.526Z,6.68
2022-09-10T00:37:30.887Z,6.70
2022-09-10T00:39:59.194Z,7.03
2022-09-10T00:42:26.739Z,7.07
2022-09-10T00:45:12.068Z,6.95
2022-09-10T00:47:40.971Z,6.35
2022-09-10T00:50:16.468Z,7.00
2022-09-10T00:52:44.324Z,6.90
2022-09-10T00:55:12.884Z,7.78
2022-09-10T00:57:41.372Z,7.40
2022-09-10T01:00:10.690Z,7.38
2022-09-10T01:02:38.237Z,9.57
2022-09-10T01:05:08.964Z,7.88
2022-09-10T01:07:37.356Z,8.35
2022-09-10T01:10:07.577Z,7.85
2022-09-10T01:12:44.552Z,7.53
2022-09-10T01:15:16.883Z,7.50
2022-09-10T01:17:55.124Z,7.88
2022-09-10T01:20:34.323Z,8.88
2022-09-10T01:23:15.721Z,7.57
2022-09-10T01:25:49.881Z,6.93
2022-09-10T01:28:23.662Z,7.13
2022-09-10T01:30:54.681Z,7.93
2022-09-10T01:33:27.501Z,7.13
2022-09-10T01:35:58.173Z,7.15
2022-09-10T01:38:27.990Z,6.90
2022-09-10T01:40:56.884Z,6.95
2022-09-10T01:43:27.637Z,6.22
2022-09-10T01:46:09.445Z,7.00
2022-09-10T01:48:55.949Z,7.53
2022-09-10T01:51:26.725Z,7.25
2022-09-10T01:54:06.417Z,8.75
2022-09-10T01:56:39.118Z,6.95
2022-09-10T01:59:14.293Z,7.30
2022-09-10T02:01:45.942Z,9.68
2022-09-10T02:04:15.092Z,6.70
2022-09-10T02:06:44.927Z,6.95
2022-09-10T02:09:13.904Z,7.78
2022-09-10T02:11:44.749Z,6.93
2022-09-10T02:14:14.536Z,8.20
2022-09-10T02:17:01.432Z,7.45
2022-09-10T02:19:29.323Z,8.68
2022-09-10T02:21:57.865Z,11.75
2022-09-10T02:24:25.594Z,7.70
2022-09-10T02:26:54.060Z,8.02
2022-09-10T02:29:22.980Z,7.43
2022-09-10T02:31:51.232Z,7.70
2022-09-10T02:34:20.190Z,7.05
2022-09-10T02:36:49.377Z,7.30
2022-09-10T02:39:16.859Z,7.40
2022-09-10T02:41:48.186Z,7.68
2022-09-10T02:44:16.243Z,7.18
2022-09-10T02:46:45.185Z,7.65
2022-09-10T02:49:12.754Z,7.60
2022-09-10T02:51:41.720Z,7.65
2022-09-10T02:54:09.279Z,6.68
2022-09-10T02:56:36.857Z,7.45
2022-09-10T02:59:04.736Z,8.02
2022-09-10T03:01:35.141Z,7.20
2022-09-10T03:04:06.979Z,9.50
2022-09-10T03:06:35.178Z,7.13
2022-09-10T03:09:02.768Z,6.38
2022-09-10T03:11:31.197Z,6.47
2022-09-10T03:13:59.695Z,7.13
2022-09-10T03:16:27.967Z,6.82
2022-09-10T03:18:56.240Z,7.55
2022-09-10T03:21:26.056Z,6.43
2022-09-10T03:23:54.172Z,6.95
2022-09-10T03:26:26.199Z,6.85
2022-09-10T03:28:54.887Z,6.75
2022-09-10T03:31:26.076Z,6.35
2022-09-10T03:33:53.749Z,10.95
2022-09-10T03:36:22.646Z,7.15
2022-09-10T03:38:52.025Z,6.75
2022-09-10T03:41:19.591Z,6.60
2022-09-10T03:43:49.413Z,7.38
2022-09-10T03:46:17.333Z,6.38
2022-09-10T03:48:48.013Z,7.63
2022-09-10T03:51:20.592Z,7.35
2022-09-10T03:53:48.252Z,6.28
2022-09-10T03:56:20.849Z,5.97
2022-09-10T03:58:49.247Z,6.15
2022-09-10T04:01:16.999Z,6.30
2022-09-10T04:03:47.424Z,6.53
2022-09-10T04:06:16.360Z,6.47
2022-09-10T04:08:44.283Z,7.25
2022-09-10T04:11:14.735Z,6.38
2022-09-10T04:13:45.298Z,6.70
2022-09-10T04:16:13.394Z,11.25
2022-09-10T04:18:41.415Z,6.88
2022-09-10T04:21:09.529Z,7.85
2022-09-10T04:23:41.309Z,7.22
2022-09-10T04:26:14.605Z,7.35
2022-09-10T04:28:45.139Z,6.78
2022-09-10T04:31:13.064Z,6.80
2022-09-10T04:33:41.024Z,7.47
2022-09-10T04:36:08.880Z,6.65
2022-09-10T04:38:41.611Z,7.43
2022-09-10T04:41:09.979Z,7.68
2022-09-10T04:43:38.056Z,9.82
2022-09-10T04:46:08.319Z,8.15
2022-09-10T04:48:38.707Z,7.57
2022-09-10T04:51:16.868Z,7.22
2022-09-10T04:53:47.742Z,7.95
2022-09-10T04:56:15.557Z,7.82
2022-09-10T04:58:44.066Z,8.45
2022-09-10T05:01:13.494Z,8.52
2022-09-10T05:03:42.847Z,8.35
2022-09-10T05:06:10.477Z,8.10
2022-09-10T05:08:38.250Z,7.57
2022-09-10T05:11:06.255Z,7.00
2022-09-10T05:13:34.421Z,7.68
2022-09-10T05:16:03.124Z,8.02
2022-09-10T05:18:34.736Z,10.32
2022-09-10T05:21:02.450Z,10.38
2022-09-10T05:23:29.979Z,9.45
2022-09-10T05:26:00.504Z,9.85
2022-09-10T05:28:28.944Z,11.25
2022-09-10T05:30:56.530Z,9.73
2022-09-10T05:33:27.083Z,7.68
2022-09-10T05:35:56.690Z,8.30
2022-09-10T05:38:24.949Z,8.55
2022-09-10T05:40:53.555Z,9.02
2022-09-10T05:43:22.034Z,8.80
2022-09-10T05:45:51.917Z,7.90
2022-09-10T05:48:20.176Z,7.90
2022-09-10T05:50:48.662Z,8.00
2022-09-10T05:53:17.941Z,8.77
2022-09-10T05:55:46.883Z,8.80
2022-09-10T05:58:16.128Z,8.68
2022-09-10T06:00:44.110Z,8.25
2022-09-10T06:03:12.646Z,8.18
2022-09-10T06:05:51.324Z,8.07
2022-09-10T06:08:25.098Z,8.00
2022-09-10T06:10:57.893Z,7.93
2022-09-10T06:13:27.803Z,8.07
2022-09-10T06:15:57.419Z,8.20
2022-09-10T06:18:27.630Z,9.02
2022-09-10T06:21:02.133Z,8.23
2022-09-10T06:23:31.967Z,7.28
2022-09-10T06:26:04.258Z,8.93
2022-09-10T06:28:33.278Z,7.90
2022-09-10T06:31:01.119Z,8.73
2022-09-10T06:33:29.753Z,8.43
2022-09-10T06:35:59.285Z,7.65
2022-09-10T06:38:29.217Z,7.65
2022-09-10T06:41:00.393Z,7.50
2022-09-10T06:43:33.289Z,7.40
2022-09-10T06:46:32.069Z,7.80
2022-09-10T06:49:07.014Z,8.00
2022-09-10T06:51:36.904Z,7.13
2022-09-10T06:54:05.602Z,7.70
2022-09-10T06:56:34.822Z,7.25
2022-09-10T06:59:04.946Z,7.80
2022-09-10T07:01:40.043Z,6.35
2022-09-10T07:04:09.071Z,6.97
2022-09-10T07:06:37.371Z,7.20
2022-09-10T07:09:11.485Z,7.00
2022-09-10T07:12:07.041Z,6.72
2022-09-10T07:14:37.249Z,6.15
2022-09-10T07:17:07.978Z,6.80
2022-09-10T07:19:37.597Z,6.28
2022-09-10T07:22:11.712Z,5.70
2022-09-10T07:24:39.961Z,5.80
2022-09-10T07:27:11.973Z,5.97
2022-09-10T07:29:42.624Z,5.88
2022-09-10T07:32:16.632Z,5.22
2022-09-10T07:34:44.263Z,5.65
2022-09-10T07:37:15.484Z,5.22
2022-09-10T07:39:43.547Z,5.93
2022-09-10T07:42:14.304Z,4.90
2022-09-10T07:44:42.245Z,6.43
2022-09-10T07:47:09.777Z,6.30
2022-09-10T07:49:38.419Z,8.63
2022-09-10T07:52:07.164Z,8.30
2022-09-10T07:54:43.828Z,8.32
2022-09-10T07:57:12.880Z,8.50
2022-09-10T07:59:41.531Z,8.93
2022-09-10T08:02:10.190Z,8.00
2022-09-10T08:04:38.858Z,8.25
2022-09-10T08:07:11.047Z,9.52
2022-09-10T08:09:41.024Z,11.35
2022-09-10T08:12:13.553Z,10.90
2022-09-10T08:14:42.273Z,9.93
2022-09-10T08:17:10.855Z,9.68
2022-09-10T08:19:42.597Z,10.32
2022-09-10T08:22:13.679Z,9.35
2022-09-10T08:24:47.979Z,10.23
2022-09-10T08:27:18.004Z,9.30
2022-09-10T08:29:47.175Z,8.65
2022-09-10T08:32:14.807Z,8.85
2022-09-10T08:34:42.525Z,8.82
2022-09-10T08:37:12.540Z,9.77
2022-09-10T08:39:41.169Z,9.90
2022-09-10T08:42:15.140Z,11.15
2022-09-10T08:44:49.877Z,10.82
2022-09-10T08:47:22.917Z,10.70
2022-09-10T08:49:53.815Z,9.18
2022-09-10T08:52:29.750Z,9.18
2022-09-10T08:55:05.509Z,9.98
2022-09-10T08:57:34.445Z,10.40
2022-09-10T09:00:04.772Z,9.93
2022-09-10T09:02:49.241Z,10.93
2022-09-10T09:05:20.599Z,11.02
2022-09-10T09:07:51.508Z,11.07
2022-09-10T09:10:20.892Z,10.27
2022-09-10T09:12:57.196Z,10.32
2022-09-10T09:15:28.988Z,9.63
2022-09-10T09:18:02.342Z,10.02
2022-09-10T09:20:37.758Z,10.88
2022-09-10T09:23:07.671Z,10.07
2022-09-10T09:25:44.175Z,10.77
2022-09-10T09:28:15.683Z,10.93
2022-09-10T09:30:49.350Z,11.05
2022-09-10T09:33:21.368Z,42.03
2022-09-10T09:35:52.437Z,10.73
2022-09-10T09:38:23.655Z,10.35
2022-09-10T09:40:56.242Z,9.50
2022-09-10T09:43:29.659Z,11.38
2022-09-10T09:45:59.162Z,12.13
2022-09-10T09:48:33.353Z,11.55
2022-09-10T09:51:02.562Z,10.25
2022-09-10T09:53:30.858Z,11.13
2022-09-10T09:55:59.335Z,10.80
2022-09-10T09:58:31.329Z,9.27
2022-09-10T10:01:12.936Z,9.73
2022-09-10T10:03:48.447Z,11.40
2022-09-10T10:06:16.591Z,10.52
2022-09-10T10:08:45.089Z,9.27
2022-09-10T10:11:14.052Z,10.23
2022-09-10T10:13:42.718Z,10.90
2022-09-10T10:16:17.041Z,12.50
2022-09-10T10:18:45.217Z,10.50
2022-09-10T10:21:14.545Z,10.07
2022-09-10T10:23:43.762Z,11.13
2022-09-10T10:26:20.185Z,10.07
2022-09-10T10:28:48.155Z,10.13
2022-09-10T10:31:17.407Z,10.88
2022-09-10T10:33:49.236Z,13.07
2022-09-10T10:36:19.685Z,10.77
2022-09-10T10:38:49.152Z,10.25
2022-09-10T10:41:40.590Z,9.95
2022-09-10T10:44:16.058Z,12.35
2022-09-10T10:46:53.825Z,11.50
2022-09-10T10:49:25.967Z,11.13
2022-09-10T10:51:58.968Z,12.70
2022-09-10T10:54:32.994Z,14.23
2022-09-10T10:57:05.778Z,13.07
2022-09-10T10:59:52.938Z,12.73
2022-09-10T11:02:25.144Z,12.90
2022-09-10T11:04:54.420Z,12.48
2022-09-10T11:07:23.900Z,10.75
2022-09-10T11:09:54.899Z,11.45
2022-09-10T11:12:28.474Z,11.48
2022-09-10T11:14:57.313Z,12.13
2022-09-10T11:17:28.389Z,11.10
2022-09-10T11:20:24.700Z,12.02
2022-09-10T11:22:51.417Z,11.10
2022-09-10T11:25:20.878Z,12.35
2022-09-10T11:27:51.163Z,12.18
2022-09-10T11:30:19.169Z,12.57
2022-09-10T11:32:51.471Z,15.02
2022-09-10T11:35:22.524Z,13.45
2022-09-10T11:37:53.514Z,13.05
2022-09-10T11:40:24.338Z,12.77
2022-09-10T11:42:53.999Z,12.48
2022-09-10T11:45:24.996Z,12.65
2022-09-10T11:47:57.257Z,11.30
2022-09-10T11:50:32.377Z,11.60
2022-09-10T11:53:02.248Z,10.40
2022-09-10T11:55:33.839Z,9.48
2022-09-10T11:58:04.920Z,9.80
2022-09-10T12:00:35.092Z,10.32
2022-09-10T12:03:27.193Z,9.02
2022-09-10T12:06:03.647Z,10.63
2022-09-10T12:08:38.295Z,9.77
2022-09-10T12:11:14.036Z,10.38
2022-09-10T12:13:41.850Z,11.98
2022-09-10T12:16:16.427Z,11.23
2022-09-10T12:18:45.324Z,10.98
2022-09-10T12:21:20.104Z,11.48
2022-09-10T12:23:47.853Z,11.00
2022-09-10T12:26:19.649Z,10.65
2022-09-10T12:29:04.007Z,10.63
2022-09-10T12:31:46.409Z,9.93
2022-09-10T12:34:19.381Z,10.20
2022-09-10T12:37:17.017Z,10.23
2022-09-10T12:39:46.064Z,10.68
2022-09-10T12:42:45.077Z,11.27
2022-09-10T12:45:12.592Z,10.70
2022-09-10T12:47:52.546Z,11.80
2022-09-10T12:50:34.586Z,9.40
2022-09-10T12:53:14.088Z,10.15
2022-09-10T12:55:48.604Z,10.48
2022-09-10T12:58:24.218Z,10.50
2022-09-10T13:01:04.479Z,9.52
2022-09-10T13:03:32.162Z,9.30
2022-09-10T13:06:01.092Z,10.40
2022-09-10T13:08:30.940Z,9.60
2022-09-10T13:11:15.675Z,9.38
2022-09-10T13:13:45.227Z,7.95
2022-09-10T13:16:14.867Z,7.72
2022-09-10T13:18:43.154Z,8.15
2022-09-10T13:21:29.429Z,8.10
2022-09-10T13:23:57.832Z,7.78
2022-09-10T13:26:48.312Z,7.40
2022-09-10T13:29:30.249Z,7.20
2022-09-10T13:32:00.333Z,7.15
2022-09-10T13:34:46.664Z,6.30
2022-09-10T13:37:22.386Z,6.35
2022-09-10T13:40:19.439Z,6.28
2022-09-10T13:43:01.813Z,5.57
2022-09-10T13:45:31.262Z,6.50
2022-09-10T13:48:02.013Z,5.20
2022-09-10T13:50:33.591Z,5.50
2022-09-10T13:53:04.927Z,5.68
2022-09-10T13:55:32.636Z,5.75
2022-09-10T13:58:05.255Z,6.15
2022-09-10T14:00:34.261Z,5.20
2022-09-10T14:03:02.251Z,5.35
2022-09-10T14:05:32.511Z,5.22
2022-09-10T14:08:02.682Z,4.57
2022-09-10T14:10:30.313Z,4.57
2022-09-10T14:12:58.703Z,4.38
2022-09-10T14:15:30.618Z,4.50
2022-09-10T14:17:59.683Z,4.32
2022-09-10T14:20:29.058Z,4.20
2022-09-10T14:22:59.400Z,4.32
2022-09-10T14:25:32.168Z,4.03
2022-09-10T14:28:13.337Z,4.03
2022-09-10T14:30:42.670Z,3.97
2022-09-10T14:33:21.287Z,3.90
2022-09-10T14:35:51.443Z,3.88
2022-09-10T14:38:26.128Z,4.07
2022-09-10T14:40:58.619Z,4.90
2022-09-10T14:43:28.585Z,4.80
2022-09-10T14:45:57.784Z,5.00
2022-09-10T14:48:32.292Z,4.50
2022-09-10T14:51:17.457Z,5.18
2022-09-10T14:53:45.951Z,5.18
2022-09-10T14:56:21.480Z,4.85
2022-09-10T14:58:51.047Z,5.20
2022-09-10T15:01:20.741Z,5.20
2022-09-10T15:03:48.283Z,5.53
2022-09-10T15:06:16.139Z,6.75
2022-09-10T15:08:43.989Z,6.43
2022-09-10T15:11:13.909Z,6.85
2022-09-10T15:13:43.216Z,5.20
2022-09-10T15:16:10.980Z,6.30
2022-09-10T15:18:40.055Z,5.55
2022-09-10T15:21:08.260Z,6.45
2022-09-10T15:23:35.972Z,6.57
2022-09-10T15:26:04.735Z,6.07
2022-09-10T15:28:32.549Z,5.47
2022-09-10T15:31:01.375Z,5.88
2022-09-10T15:33:28.931Z,6.28
2022-09-10T15:35:57.956Z,6.13
2022-09-10T15:38:25.581Z,5.95
2022-09-10T15:40:54.148Z,6.15
2022-09-10T15:43:24.324Z,5.30
2022-09-10T15:45:51.907Z,5.82
2022-09-10T15:48:19.415Z,6.35
2022-09-10T15:50:48.791Z,6.05
2022-09-10T15:53:17.690Z,6.75
2022-09-10T15:55:45.224Z,7.35
2022-09-10T15:58:13.054Z,6.60
2022-09-10T16:00:40.579Z,6.18
2022-09-10T16:03:08.172Z,5.95
2022-09-10T16:05:36.116Z,6.13
2022-09-10T16:08:03.912Z,6.40
2022-09-10T16:10:33.198Z,5.15
2022-09-10T16:13:01.227Z,5.65
2022-09-10T16:15:28.966Z,5.80
2022-09-10T16:17:56.479Z,5.70
2022-09-10T16:20:24.551Z,6.75
2022-09-10T16:22:54.505Z,5.07
2022-09-10T16:25:22.030Z,6.75
2022-09-10T16:27:51.224Z,5.32
2022-09-10T16:30:18.975Z,5.90
2022-09-10T16:32:46.467Z,5.97
2022-09-10T16:35:14.422Z,6.18
2022-09-10T16:37:42.016Z,6.38
2022-09-10T16:40:11.050Z,7.38
2022-09-10T16:42:39.074Z,6.78
2022-09-10T16:45:09.299Z,8.05
2022-09-10T16:47:37.119Z,7.22
2022-09-10T16:50:05.498Z,7.10
2022-09-10T16:52:34.047Z,7.88
2022-09-10T16:55:04.358Z,7.28
2022-09-10T16:57:31.922Z,7.93
2022-09-10T16:59:59.792Z,8.13
2022-09-10T17:02:31.925Z,8.68
2022-09-10T17:04:59.535Z,10.15
2022-09-10T17:07:27.306Z,167.35
2022-09-10T17:10:00.094Z,10.40
2022-09-10T17:12:29.376Z,9.98
2022-09-10T17:14:57.000Z,9.43
2022-09-10T17:17:25.407Z,9.30
2022-09-10T17:19:54.583Z,9.13
2022-09-10T17:22:22.648Z,8.52
2022-09-10T17:24:50.608Z,10.57
2022-09-10T17:27:21.430Z,9.00
2022-09-10T17:29:51.596Z,8.85
2022-09-10T17:32:19.306Z,8.90
2022-09-10T17:34:47.332Z,9.13
2022-09-10T17:37:16.256Z,10.07
2022-09-10T17:39:44.634Z,7.60
2022-09-10T17:42:13.000Z,11.15
2022-09-10T17:44:40.760Z,8.23
2022-09-10T17:47:09.532Z,9.40
2022-09-10T17:49:38.356Z,8.45
2022-09-10T17:52:06.125Z,8.98
2022-09-10T17:54:35.055Z,8.15
2022-09-10T17:57:02.722Z,10.05
2022-09-10T17:59:31.142Z,8.95
2022-09-10T18:01:59.457Z,8.68
2022-09-10T18:04:27.500Z,9.15
2022-09-10T18:06:55.720Z,24.52
2022-09-10T18:09:25.369Z,12.80
2022-09-10T18:11:56.471Z,9.95
2022-09-10T18:14:25.721Z,12.73
2022-09-10T18:16:55.413Z,14.48
2022-09-10T18:19:22.940Z,12.20
2022-09-10T18:21:51.205Z,16.52
2022-09-10T18:24:20.837Z,15.52
2022-09-10T18:26:48.983Z,20.98
2022-09-10T18:29:18.941Z,22.63
2022-09-10T18:31:47.690Z,20.70
2022-09-10T18:34:22.127Z,21.63
2022-09-10T18:36:53.333Z,25.85
2022-09-10T18:39:21.978Z,26.10
2022-09-10T18:41:49.507Z,26.13
2022-09-10T18:44:20.615Z,26.10
2022-09-10T18:46:48.974Z,30.30
2022-09-10T18:49:20.986Z,29.63
2022-09-10T18:51:49.466Z,29.50
2022-09-10T18:54:17.874Z,37.60
2022-09-10T18:56:46.860Z,36.35
2022-09-10T18:59:15.492Z,38.63
2022-09-10T19:01:45.547Z,36.17
2022-09-10T19:04:14.785Z,36.70
2022-09-10T19:06:43.151Z,38.28
2022-09-10T19:09:11.903Z,43.63
2022-09-10T19:11:40.292Z,45.45
2022-09-10T19:14:08.618Z,36.28
2022-09-10T19:16:36.760Z,42.58
2022-09-10T19:19:06.465Z,43.10
2022-09-10T19:21:35.234Z,42.78
2022-09-10T19:24:03.631Z,42.88
2022-09-10T19:26:31.908Z,40.67
2022-09-10T19:29:00.120Z,45.17
2022-09-10T19:31:28.346Z,43.67
2022-09-10T19:33:57.106Z,42.33
2022-09-10T19:36:27.759Z,44.90
2022-09-10T19:38:55.549Z,45.72
2022-09-10T19:41:23.429Z,46.17
2022-09-10T19:43:51.962Z,48.78
2022-09-10T19:46:20.496Z,51.58
2022-09-10T19:48:48.711Z,49.35
2022-09-10T19:51:16.762Z,54.60
2022-09-10T19:53:45.599Z,45.88
2022-09-10T19:56:19.724Z,46.30
2022-09-10T19:58:49.570Z,48.60
2022-09-10T20:01:17.881Z,50.80
2022-09-10T20:03:45.977Z,49.58
2022-09-10T20:06:14.924Z,50.70
2022-09-10T20:08:42.715Z,54.28
2022-09-10T20:11:15.410Z,52.90
2022-09-10T20:13:43.067Z,49.30
2022-09-10T20:16:10.760Z,50.25
2022-09-10T20:18:38.361Z,50.05
2022-09-10T20:21:11.342Z,54.92
2022-09-10T20:23:39.563Z,54.20
2022-09-10T20:26:13.550Z,46.00
2022-09-10T20:28:41.251Z,49.80
2022-09-10T20:31:09.750Z,52.30
2022-09-10T20:33:37.603Z,52.05
2022-09-10T20:36:06.009Z,56.15
2022-09-10T20:38:34.303Z,55.97
2022-09-10T20:41:01.923Z,61.58
2022-09-10T20:43:30.816Z,60.58
2022-09-10T20:45:58.392Z,59.05
2022-09-10T20:48:25.992Z,65.47
2022-09-10T20:50:54.256Z,59.25
2022-09-10T20:53:22.395Z,62.33
2022-09-10T20:55:50.164Z,64.57
2022-09-10T20:58:17.976Z,62.55
2022-09-10T21:00:46.887Z,63.17
2022-09-10T21:03:14.473Z,63.75
2022-09-10T21:05:49.131Z,64.57
2022-09-10T21:08:16.915Z,68.18
2022-09-10T21:10:44.744Z,64.40
2022-09-10T21:13:12.297Z,63.13
2022-09-10T21:15:39.849Z,66.40
2022-09-10T21:18:09.178Z,65.85
2022-09-10T21:20:36.700Z,73.47
2022-09-10T21:23:04.421Z,66.07
2022-09-10T21:25:33.079Z,62.78
2022-09-10T21:28:01.042Z,65.90
2022-09-10T21:30:29.035Z,72.32
2022-09-10T21:32:56.585Z,70.07
2022-09-10T21:35:25.688Z,66.03
2022-09-10T21:37:53.372Z,77.53
2022-09-10T21:40:21.200Z,72.80
2022-09-10T21:42:49.061Z,71.35
2022-09-10T21:45:18.681Z,60.78
2022-09-10T21:47:46.218Z,66.20
2022-09-10T21:50:13.777Z,72.07
2022-09-10T21:52:43.134Z,68.90
2022-09-10T21:55:10.930Z,68.15
2022-09-10T21:57:39.462Z,69.97
2022-09-10T22:00:08.261Z,74.30
2022-09-10T22:02:41.043Z,72.28
2022-09-10T22:05:09.177Z,64.53
2022-09-10T22:07:36.861Z,66.25
2022-09-10T22:10:07.474Z,71.95
2022-09-10T22:12:35.022Z,67.35
2022-09-10T22:15:02.598Z,69.70
2022-09-10T22:17:30.170Z,78.70
2022-09-10T22:19:58.078Z,72.63
2022-09-10T22:22:25.701Z,75.75
2022-09-10T22:24:53.597Z,72.05
2022-09-10T22:27:22.657Z,79.72
2022-09-10T22:29:51.408Z,72.63
2022-09-10T22:32:19.344Z,81.32
2022-09-10T22:34:48.476Z,75.00
2022-09-10T22:37:15.998Z,82.00
2022-09-10T22:39:43.719Z,85.07
2022-09-10T22:42:11.296Z,87.75
2022-09-10T22:44:40.191Z,81.32
2022-09-10T22:47:08.033Z,84.10
2022-09-10T22:49:37.124Z,82.63
2022-09-10T22:52:05.127Z,85.93
2022-09-10T22:54:32.656Z,88.75
2022-09-10T22:57:00.397Z,86.57
2022-09-10T22:59:28.082Z,92.57
2022-09-10T23:01:56.941Z,88.32
2022-09-10T23:04:24.507Z,84.40
2022-09-10T23:06:52.123Z,85.63
2022-09-10T23:09:19.703Z,94.10
2022-09-10T23:11:47.600Z,105.35
2022-09-10T23:14:17.857Z,107.00
2022-09-10T23:16:48.161Z,113.22
2022-09-10T23:19:17.800Z,118.32
2022-09-10T23:21:46.432Z,150.20
2022-09-10T23:24:15.676Z,147.38
2022-09-10T23:26:44.135Z,127.18
2022-09-10T23:29:12.340Z,178.82
2022-09-10T23:31:40.824Z,158.73
2022-09-10T23:34:09.843Z,176.30
2022-09-10T23:36:39.487Z,148.48
2022-09-10T23:39:07.884Z,190.85
2022-09-10T23:41:36.817Z,160.95
2022-09-10T23:44:04.432Z,152.40
2022-09-10T23:46:32.277Z,175.10
2022-09-10T23:49:00.253Z,188.75
2022-09-10T23:51:27.836Z,180.35
2022-09-10T23:53:56.869Z,172.60
2022-09-10T23:56:25.521Z,182.32
2022-09-10T23:58:53.397Z,167.63
